Карточка аэропорта UAKK

Внимание!
Информация на этой странице в стадии наполнения.
Если вы не увидели какой-то информации, или заметили неточность - пожалуйста сообщите нам!
Спасибо!
Команда RU-STAFF
Название аэропортаКараганда
Название аэропорта (англ.)Karaganda
Превышение1768 ft. (538.9 m.)
Координаты49°40.302', 73°20.118'
Высота перехода10000
Эшелон переходаby ATC
Коды ответчика0630-0637, 7220-7227
Зона ОрВДАстана РПИ (UACN)
Данные METARUAKK 230630Z 27006MPS 220V300 CAVOK 21/03 Q1018 NOSIG RMK QFE717/0956
Проноз погоды (TAF)UAKK 230503Z 2306/2406 27005MPS 9999 SCT040 SCT100 TX22/2309Z TN06/2401Z TEMPO 2306/2312 23008MPS SCT030CB TEMPO 2312/2316 22005MPS BECMG 2316/2318 18003MPS TEMPO 2400/2406 SCT030 BKN100
NOTAMshow/hide NOTAM
AWOS   TABLE

Информация о ВПП

ВПП Длина ВПП (м.) Покрытие Курс ВПП Частота ILS
053601Железобетон50109.9
233601Железобетон230111.7

Диспетчерские позиции




Спутниковое изображение